• Join FlightAware (Why Join?)
  • Login
  • US Flag 
09:48PM EDT


 

Airport Tracker/Info


-or-


 

Live Flight TrackerFlight Track Log ✈ AAY800 ✈ 29-Apr-2014 ✈ KPIE - KTOL

Flight Track Log - Related Links

Times and Time Zones

All times are in EDT time to prevent confusion due to time zone crossing. See the AAY800 flight status page for this flight to view local times or setup timezone preferences in your user account.

Time Position Orientation Groundspeed Altitude Reporting Facility
EDT Latitude Longitude Course Direction KTS MPH feet Rate Location/Type
07:50AM 27.8833 -82.6833 180° South 164 189 900  Level Tampa TRACON
07:51AM 27.8500 -82.6833 180° South 168 193 2,400 1,140 Climbing Tampa TRACON
07:52AM 27.8167 -82.7000 204° Southwest 205 236 3,000 720 Climbing Tampa TRACON
07:53AM 27.8167 -82.7667 270° West 258 297 3,900 1,860 Climbing Tampa TRACON
07:55AM 27.9725 -82.7961 351° North 308 354 8,800 2,280 Climbing Jacksonville Center
07:56AM 28.0622 -82.7867 North 308 354 10,900 1,560 Climbing Jacksonville Center
07:57AM 28.1667 -82.7772 North 336 387 12,000 1,620 Climbing Jacksonville Center
07:58AM 28.2792 -82.7606 North 374 430 14,200 2,220 Climbing Jacksonville Center
07:59AM 28.3939 -82.7439 North 400 460 16,500 2,100 Climbing Jacksonville Center
08:00AM 28.5089 -82.7272 North 413 475 18,400 1,680 Climbing Jacksonville Center
08:01AM 28.6319 -82.7128 North 424 488 19,900 1,500 Climbing Jacksonville Center
08:02AM 28.7653 -82.6936 North 429 494 21,500 1,500 Climbing Jacksonville Center
08:03AM 28.8928 -82.6767 North 439 505 23,000 1,440 Climbing Jacksonville Center
08:04AM 29.0200 -82.6503 10° North 449 517 24,400 1,380 Climbing Jacksonville Center
08:05AM 29.1472 -82.6214 11° North 459 528 25,800 1,260 Climbing Jacksonville Center
08:06AM 29.2744 -82.5997 North 459 528 27,000 1,320 Climbing Jacksonville Center
08:07AM 29.3956 -82.6350 346° North 450 518 28,500 1,320 Climbing Jacksonville Center
08:08AM 29.5064 -82.6731 343° North 445 512 29,700 720 Climbing Jacksonville Center
08:09AM 29.6275 -82.7086 346° North 451 519 30,000 420 Climbing Jacksonville Center
08:10AM 29.7444 -82.7347 349° North 445 512 30,600 480 Climbing Jacksonville Center
08:11AM 29.8761 -82.7511 354° North 434 499 31,000 180 Climbing Jacksonville Center
08:12AM 29.9992 -82.7656 354° North 432 497 31,000  Level Jacksonville Center
08:13AM 30.1119 -82.7678 359° North 437 503 31,000  Level Jacksonville Center
08:14AM 30.2331 -82.7436 10° North 437 503 31,000  Level Jacksonville Center
08:15AM 30.3542 -82.7289 North 443 510 31,000  Level Jacksonville Center
08:16AM 30.4772 -82.6997 12° North 443 510 31,000  Level Jacksonville Center
08:17AM 30.6108 -82.6803 North 443 510 31,000  Level Jacksonville Center
08:18AM 30.7297 -82.6581 North 443 510 31,000  Level Jacksonville Center
08:19AM 30.8550 -82.6383 North 443 510 31,000  Level Jacksonville Center
08:20AM 30.9761 -82.6114 11° North 448 516 31,000  Level Jacksonville Center
08:21AM 31.0972 -82.5942 North 448 516 31,000  Level Jacksonville Center
08:22AM 31.2183 -82.5669 11° North 448 516 31,000  Level Jacksonville Center
08:23AM 31.3414 -82.5497 North 448 516 31,000  Level Jacksonville Center
08:24AM 31.4539 -82.5200 13° North 448 516 31,000  Level Jacksonville Center
08:26AM 31.7400 -82.5786 350° North 433 498 31,000 180 Level Atlanta Center
08:27AM 31.8553 -82.6133 346° North 433 498 31,600 480 Climbing Atlanta Center
08:28AM 31.9725 -82.6506 345° North 433 498 32,000 180 Climbing Atlanta Center
08:29AM 32.0981 -82.6633 355° North 433 498 32,000  Level Atlanta Center
08:30AM 32.2214 -82.6886 350° North 446 513 32,000  Level Atlanta Center
08:31AM 32.3447 -82.7039 354° North 446 513 32,000  Level Atlanta Center
08:32AM 32.4700 -82.7267 351° North 446 513 32,000  Level Atlanta Center
08:33AM 32.5808 -82.7422 353° North 439 505 32,000  Level Atlanta Center
08:34AM 32.7044 -82.7650 351° North 439 505 32,000  Level Atlanta Center
08:35AM 32.8297 -82.7756 356° North 444 511 32,000  Level Atlanta Center
08:36AM 32.9511 -82.8011 350° North 444 511 32,000  Level Atlanta Center
08:37AM 33.0783 -82.8167 354° North 444 511 32,000  Level Atlanta Center
08:38AM 33.2039 -82.8422 350° North 444 511 32,000  Level Atlanta Center
08:39AM 33.3314 -82.8578 354° North 449 517 32,000  Level Atlanta Center
08:40AM 33.4569 -82.8811 351° North 449 517 32,000  Level Atlanta Center
08:41AM 33.5886 -82.8992 353° North 454 522 32,000  Level Atlanta Center
08:42AM 33.7183 -82.9225 351° North 460 529 32,000  Level Atlanta Center
08:43AM 33.8456 -82.9408 353° North 465 535 32,000  Level Atlanta Center
08:44AM 33.9753 -82.9617 352° North 465 535 32,000  Level Atlanta Center
08:45AM 34.1047 -82.9825 352° North 465 535 32,000  Level Atlanta Center
08:46AM 34.2322 -83.0011 353° North 465 535 32,000  Level Atlanta Center
08:47AM 34.3597 -83.0222 352° North 465 535 32,000  Level Atlanta Center
08:48AM 34.4894 -83.0408 353° North 465 535 32,000  Level Atlanta Center
08:49AM 34.6211 -83.0594 353° North 465 535 32,000  Level Atlanta Center
08:50AM 34.7483 -83.0806 352° North 465 535 32,000  Level Atlanta Center
08:51AM 34.8781 -83.1069 351° North 465 535 32,000  Level Atlanta Center
08:52AM 35.0097 -83.1208 355° North 465 535 32,000  Level Atlanta Center
08:53AM 35.1392 -83.1472 351° North 465 535 32,000  Level Atlanta Center
08:54AM 35.2728 -83.1636 354° North 470 541 32,000  Level Atlanta Center
08:55AM 35.4044 -83.1903 351° North 470 541 32,000  Level Atlanta Center
08:56AM 35.5381 -83.2092 353° North 475 547 32,000  Level Atlanta Center
08:57AM 35.6719 -83.2361 351° North 485 558 32,000  Level Atlanta Center
08:58AM 35.8097 -83.2525 354° North 485 558 32,000  Level Atlanta Center
08:59AM 35.9433 -83.2794 351° North 485 558 32,000  Level Atlanta Center
09:00AM 36.0811 -83.2989 353° North 485 558 32,000  Level Atlanta Center
09:01AM 36.2189 -83.3258 351° North 485 558 32,000  Level Atlanta Center
09:03AM 36.4536 -83.3642 353° North 505 581 32,000  Level Indianapolis Center
09:04AM 36.6206 -83.3856 354° North 509 586 32,000  Level Indianapolis Center
09:05AM 36.7600 -83.4139 351° North 505 581 32,000  Level Indianapolis Center
09:06AM 36.8972 -83.4378 352° North 497 572 32,000  Level Indianapolis Center
09:07AM 37.0417 -83.4625 352° North 511 588 32,000 -60 Level Indianapolis Center
09:08AM 37.1842 -83.4858 353° North 512 589 31,900 -660 Descending Indianapolis Center
09:09AM 37.3233 -83.5061 353° North 506 582 30,700 -960 Descending Indianapolis Center
09:10AM 37.4533 -83.5344 350° North 480 552 30,000 -360 Descending Indianapolis Center
09:11AM 37.5886 -83.5533 354° North 482 555 30,000  Level Indianapolis Center
09:12AM 37.7500 -83.5853 351° North 498 573 30,000  Level Indianapolis Center
09:13AM 37.8914 -83.6069 353° North 504 580 30,000  Level Indianapolis Center
09:14AM 38.0319 -83.6331 352° North 506 582 30,000  Level Indianapolis Center
09:15AM 38.1808 -83.6258 North 521 600 30,000  Level Indianapolis Center
09:16AM 38.3267 -83.6331 358° North 522 601 30,000  Level Indianapolis Center
09:17AM 38.4731 -83.6325 360° North 522 601 30,000  Level Indianapolis Center
09:18AM 38.6450 -83.6361 359° North 525 604 30,000  Level Indianapolis Center
09:19AM 38.7722 -83.6322 North 533 613 30,000  Level Indianapolis Center
09:20AM 38.9492 -83.6358 359° North 533 613 30,000  Level Indianapolis Center
09:21AM 39.0992 -83.6322 North 533 613 30,000  Level Indianapolis Center
09:22AM 39.2481 -83.6336 360° North 533 613 30,000  Level Indianapolis Center
09:24AM 39.3961 -83.6319 360° North 533 613 30,000  Level Indianapolis Center
09:25AM 39.5464 -83.6386 358° North 534 615 30,000  Level Indianapolis Center
09:26AM 39.6961 -83.6331 North 534 615 30,000 -900 Level Indianapolis Center
09:27AM 39.8419 -83.6406 358° North 523 602 28,200 -1,860 Descending Indianapolis Center
09:28AM 39.9850 -83.6322 North 505 581 26,200 -2,040 Descending Indianapolis Center
09:29AM 40.1294 -83.6386 358° North 510 587 24,100 -1,860 Descending Indianapolis Center
09:30AM 40.2983 -83.6367 North 509 586 22,400 -1,620 Descending Indianapolis Center
09:31AM 40.4331 -83.6386 359° North 490 564 20,800 -1,500 Descending Indianapolis Center
09:32AM 40.5639 -83.6336 North 476 548 19,300 -900 Descending Indianapolis Center
09:33AM 40.6917 -83.6369 359° North 461 531 19,000 -180 Descending Indianapolis Center
09:34AM 40.8211 -83.6364 360° North 462 532 19,000 -420 Level Indianapolis Center
09:35AM 40.9506 -83.6356 360° North 463 533 18,200 -1,860 Descending Indianapolis Center
09:36AM 41.0964 -83.6353 360° North 463 533 15,200 -2,400 Descending Indianapolis Center
09:37AM 41.2222 -83.6353 360° North 453 521 13,300 -1,500 Descending Indianapolis Center
09:38AM 41.3336 -83.6381 359° North 409 471 12,100 -1,500 Descending Indianapolis Center
09:39AM 41.4169 -83.5864 25° Northeast 354 407 10,300 -2,400 Descending Indianapolis Center
09:40AM 41.5031 -83.5075 34° Northeast 327 376 7,200 -2,520 Descending Indianapolis Center
09:41AM 41.5792 -83.4944 North 306 352 5,200 -2,040 Descending Indianapolis Center
09:42AM 41.6453 -83.5347 336° Northwest 274 315 3,000 -1,020 Descending Indianapolis Center
09:43AM 41.6764 -83.6003 302° West 251 289 3,100 -300 Climbing Indianapolis Center
09:45AM 41.6269 -83.6872 233° Southwest 160 184 2,300 -540 Descending Cleveland Center
09:46AM 41.6128 -83.7281 245° Southwest 133 153 1,800 -360 Descending Cleveland Center
09:47AM 41.6003 -83.7725 249° West 132 152 1,600 -240 Descending Cleveland Center